Time;durP1;ratioP1;P1;durP2;ratioP2;P2;SDS_P1;SDS_P2;PMS_P1;PMS_P2;Temp;Humidity;BMP_temperature;BMP_pressure;BME280_temperature;BME280_humidity;BME280_pressure;Samples;Min_cycle;Max_cycle;Signal;HPM_P1;HPM_P2
2022/03/09 00:00:33;;;;;;;13.40;4.43;;;3.80;78.20;;;;;;5015175;28;20544;-68
2022/03/09 00:02:58;;;;;;;7.37;4.30;;;3.80;77.90;;;;;;5006033;28;20232;-68
2022/03/09 00:05:24;;;;;;;7.33;4.30;;;3.70;78.30;;;;;;5027132;28;20224;-69
2022/03/09 00:07:50;;;;;;;6.37;3.97;;;3.60;78.30;;;;;;5028080;28;20212;-68
2022/03/09 00:10:16;;;;;;;8.27;4.27;;;3.60;78.50;;;;;;5033163;28;20696;-68
2022/03/09 00:12:42;;;;;;;7.50;4.83;;;3.50;78.50;;;;;;5018284;28;20254;-68
2022/03/09 00:15:08;;;;;;;8.20;4.40;;;3.50;79.00;;;;;;5018637;28;20279;-68
2022/03/09 00:17:35;;;;;;;7.10;3.80;;;3.50;79.00;;;;;;5035359;28;20454;-69
2022/03/09 00:20:01;;;;;;;6.03;3.60;;;3.50;79.10;;;;;;5015669;28;20866;-70
2022/03/09 00:22:26;;;;;;;6.33;3.83;;;3.60;79.20;;;;;;5016514;28;20232;-70
2022/03/09 00:24:52;;;;;;;6.87;3.77;;;3.50;79.10;;;;;;5016319;28;20563;-69
2022/03/09 00:27:18;;;;;;;6.77;4.10;;;3.40;79.20;;;;;;5033809;28;20219;-70
2022/03/09 00:29:43;;;;;;;7.97;4.70;;;3.50;79.40;;;;;;5029445;28;20209;-69
2022/03/09 00:32:10;;;;;;;6.53;4.30;;;3.50;78.60;;;;;;5034411;28;20617;-70
2022/03/09 00:34:35;;;;;;;7.10;4.93;;;3.50;78.70;;;;;;5001979;28;20623;-69
2022/03/09 00:37:01;;;;;;;6.13;3.20;;;3.30;79.40;;;;;;5010659;28;20451;-69
2022/03/09 00:39:27;;;;;;;8.80;4.20;;;3.40;79.10;;;;;;5031782;28;20307;-70
2022/03/09 00:41:53;;;;;;;7.30;4.57;;;3.40;79.20;;;;;;5014771;28;20550;-68
2022/03/09 00:44:19;;;;;;;6.87;3.97;;;3.40;79.10;;;;;;5017964;28;20261;-68
2022/03/09 00:46:46;;;;;;;6.10;4.60;;;3.40;79.30;;;;;;5017856;28;20703;-68
2022/03/09 00:49:12;;;;;;;5.57;3.63;;;3.30;78.80;;;;;;5033726;28;20458;-68
2022/03/09 00:51:38;;;;;;;5.70;3.60;;;3.20;79.10;;;;;;5018227;28;20691;-69
2022/03/09 00:54:04;;;;;;;6.23;4.27;;;3.10;78.90;;;;;;4998949;28;20225;-70
2022/03/09 00:56:29;;;;;;;5.37;3.97;;;3.20;79.20;;;;;;5016777;28;20213;-68
2022/03/09 00:58:55;;;;;;;4.37;3.73;;;3.20;78.50;;;;;;5017403;28;20737;-68
2022/03/09 01:01:21;;;;;;;5.90;3.63;;;3.20;78.90;;;;;;5006196;28;20229;-69
2022/03/09 01:03:46;;;;;;;7.80;4.50;;;3.20;78.90;;;;;;5034883;28;20224;-69
2022/03/09 01:06:14;;;;;;;4.93;3.57;;;3.20;78.90;;;;;;5027048;28;20240;-70
2022/03/09 01:08:39;;;;;;;5.90;4.50;;;3.20;78.30;;;;;;5035354;28;20803;-67
2022/03/09 01:11:05;;;;;;;6.57;4.53;;;3.10;78.30;;;;;;5002145;28;20542;-69
2022/03/09 01:13:31;;;;;;;5.93;3.70;;;3.10;78.40;;;;;;5036150;28;20224;-71
2022/03/09 01:15:56;;;;;;;8.23;4.27;;;3.10;78.80;;;;;;5035882;28;20228;-70
2022/03/09 01:18:23;;;;;;;6.93;4.97;;;3.10;79.00;;;;;;5007679;28;20229;-69
2022/03/09 01:20:48;;;;;;;9.47;4.93;;;3.10;79.00;;;;;;5009852;28;20227;-68
2022/03/09 01:23:14;;;;;;;10.23;4.07;;;3.10;79.10;;;;;;5014734;28;20467;-69
2022/03/09 01:25:39;;;;;;;6.20;3.87;;;3.10;78.90;;;;;;5014525;28;20216;-68
2022/03/09 01:28:05;;;;;;;6.00;4.13;;;3.10;79.30;;;;;;5032547;28;20703;-70
2022/03/09 01:30:31;;;;;;;7.93;4.43;;;3.00;79.10;;;;;;5014619;28;20223;-70
2022/03/09 01:32:57;;;;;;;10.20;4.83;;;3.00;79.10;;;;;;5022700;28;20227;-68
2022/03/09 01:35:23;;;;;;;7.10;4.47;;;2.90;79.40;;;;;;5006384;28;20212;-68
2022/03/09 01:37:49;;;;;;;4.77;3.83;;;2.90;78.90;;;;;;5014181;28;20490;-68
2022/03/09 01:40:15;;;;;;;4.40;3.13;;;2.90;79.00;;;;;;5015163;28;20221;-68
2022/03/09 01:42:41;;;;;;;3.80;3.40;;;2.90;79.30;;;;;;5025668;28;20971;-68
2022/03/09 01:45:10;;;;;;;4.60;3.03;;;2.80;78.90;;;;;;5031199;28;20461;-69
2022/03/09 01:47:36;;;;;;;5.70;4.00;;;2.80;78.70;;;;;;4997759;28;20852;-68
2022/03/09 01:50:02;;;;;;;6.20;4.17;;;2.90;79.00;;;;;;5013021;28;20447;-69
2022/03/09 01:52:28;;;;;;;7.27;3.70;;;2.90;79.30;;;;;;5012742;28;20229;-68
2022/03/09 01:54:54;;;;;;;5.70;3.47;;;2.90;79.00;;;;;;5010952;28;20460;-69
2022/03/09 01:57:21;;;;;;;4.53;3.70;;;2.90;79.10;;;;;;5011696;28;20315;-68
2022/03/09 01:59:52;;;;;;;5.60;3.33;;;2.90;79.10;;;;;;5025032;28;20456;-68
2022/03/09 02:02:18;;;;;;;5.67;3.40;;;2.90;79.40;;;;;;5028566;28;20482;-68
2022/03/09 02:04:45;;;;;;;5.43;3.83;;;2.80;79.40;;;;;;5017221;28;20444;-71
2022/03/09 02:07:11;;;;;;;5.13;3.70;;;2.80;79.60;;;;;;5030572;28;20447;-69
2022/03/09 02:09:47;;;;;;;6.83;3.80;;;2.80;79.40;;;;;;5031821;28;20514;-68
2022/03/09 02:12:15;;;;;;;4.33;3.67;;;2.80;79.50;;;;;;5013593;28;20486;-69
2022/03/09 02:14:43;;;;;;;7.67;4.30;;;2.80;79.60;;;;;;5029057;28;20885;-69
2022/03/09 02:17:11;;;;;;;5.83;4.23;;;2.80;79.50;;;;;;5031530;28;20530;-69
2022/03/09 02:19:39;;;;;;;6.87;3.50;;;2.80;79.70;;;;;;5030383;28;20466;-70
2022/03/09 02:22:04;;;;;;;9.90;3.67;;;2.80;79.60;;;;;;5012308;28;22950;-71
2022/03/09 02:24:31;;;;;;;6.93;3.30;;;2.80;78.80;;;;;;5031298;28;20538;-68
2022/03/09 02:26:56;;;;;;;6.10;3.57;;;2.70;78.70;;;;;;5006673;28;20213;-70
2022/03/09 02:29:22;;;;;;;6.27;4.17;;;2.80;79.40;;;;;;5027958;28;20454;-68
2022/03/09 02:31:48;;;;;;;7.67;4.17;;;2.70;79.10;;;;;;5031244;28;20705;-69
2022/03/09 02:34:13;;;;;;;7.50;3.70;;;2.70;79.00;;;;;;4994979;28;20225;-68
2022/03/09 02:36:39;;;;;;;6.50;4.50;;;2.70;79.40;;;;;;5030781;28;20303;-68
2022/03/09 02:39:05;;;;;;;5.97;4.10;;;2.70;79.10;;;;;;4997128;28;20216;-70
2022/03/09 02:41:33;;;;;;;4.27;3.77;;;2.60;79.40;;;;;;5014142;28;20224;-68
2022/03/09 02:44:03;;;;;;;5.67;3.10;;;2.60;79.50;;;;;;4997281;28;20316;-69
2022/03/09 02:46:29;;;;;;;4.87;3.13;;;2.60;79.70;;;;;;5010479;28;20456;-68
2022/03/09 02:48:55;;;;;;;10.80;4.23;;;2.50;79.90;;;;;;5017002;28;20451;-68
2022/03/09 02:51:21;;;;;;;8.00;3.50;;;2.40;79.80;;;;;;5013072;28;20236;-68
2022/03/09 02:53:48;;;;;;;6.93;3.70;;;2.40;79.90;;;;;;5030932;28;20471;-69
2022/03/09 02:56:15;;;;;;;6.47;3.53;;;2.30;79.90;;;;;;5031309;28;20517;-69
2022/03/09 02:58:43;;;;;;;3.60;2.83;;;2.40;80.20;;;;;;5021828;28;20508;-69
2022/03/09 03:01:09;;;;;;;5.47;3.50;;;2.40;80.00;;;;;;5028931;28;20538;-67
2022/03/09 03:03:35;;;;;;;7.80;4.73;;;2.30;79.80;;;;;;5029827;28;20477;-68
2022/03/09 03:06:00;;;;;;;7.07;3.90;;;2.30;79.60;;;;;;5030537;28;20455;-68
2022/03/09 03:08:27;;;;;;;5.83;3.73;;;2.30;79.60;;;;;;5012177;28;20631;-68
2022/03/09 03:10:53;;;;;;;4.67;3.17;;;2.30;79.80;;;;;;5016480;28;23579;-68
2022/03/09 03:13:19;;;;;;;8.07;4.10;;;2.30;80.20;;;;;;5011045;28;20231;-68
2022/03/09 03:15:44;;;;;;;8.17;3.50;;;2.30;79.40;;;;;;5030425;28;20304;-68
2022/03/09 03:18:10;;;;;;;10.50;4.90;;;2.30;79.80;;;;;;5014229;28;20688;-68
2022/03/09 03:20:36;;;;;;;6.47;3.80;;;2.30;79.80;;;;;;5008357;28;20216;-68
2022/03/09 03:23:02;;;;;;;6.00;3.73;;;2.30;79.70;;;;;;5013075;28;20239;-69
2022/03/09 03:25:27;;;;;;;4.53;3.30;;;2.30;80.00;;;;;;5012882;28;20220;-69
2022/03/09 03:27:53;;;;;;;4.67;3.63;;;2.30;80.10;;;;;;5009031;28;20253;-68
2022/03/09 03:30:18;;;;;;;5.77;2.80;;;2.20;80.30;;;;;;5023836;28;20300;-67
2022/03/09 03:32:44;;;;;;;6.23;3.23;;;2.20;80.30;;;;;;5018770;28;20216;-69
2022/03/09 03:35:10;;;;;;;5.30;3.70;;;2.20;80.10;;;;;;5011640;28;20570;-68
2022/03/09 03:37:36;;;;;;;4.63;3.47;;;2.20;80.10;;;;;;5006387;28;20343;-68
2022/03/09 03:40:03;;;;;;;5.57;3.37;;;2.20;80.00;;;;;;5027971;28;20455;-68
2022/03/09 03:42:28;;;;;;;4.97;3.00;;;2.10;79.40;;;;;;5026129;28;20475;-69
2022/03/09 03:44:55;;;;;;;5.13;3.27;;;2.10;79.90;;;;;;5026321;28;20839;-69
2022/03/09 03:47:20;;;;;;;7.43;3.60;;;2.10;80.30;;;;;;5017854;28;20452;-69
2022/03/09 03:49:46;;;;;;;6.47;3.03;;;2.10;80.10;;;;;;5018450;28;20209;-69
2022/03/09 03:52:12;;;;;;;7.73;3.60;;;2.10;80.20;;;;;;5027263;28;20319;-69
2022/03/09 03:54:37;;;;;;;5.87;3.63;;;2.00;80.00;;;;;;4994569;28;20347;-69
2022/03/09 03:57:03;;;;;;;12.87;4.10;;;2.00;80.00;;;;;;5006063;28;20232;-69
2022/03/09 03:59:29;;;;;;;5.87;3.70;;;2.00;80.10;;;;;;5020453;28;20693;-69
2022/03/09 04:01:55;;;;;;;6.40;3.93;;;2.00;79.70;;;;;;5008197;28;20451;-69
2022/03/09 04:04:20;;;;;;;5.63;3.17;;;2.10;80.00;;;;;;5011036;28;20256;-68
2022/03/09 04:06:46;;;;;;;8.67;4.27;;;2.00;79.70;;;;;;5009973;28;20221;-69
2022/03/09 04:09:12;;;;;;;6.30;3.83;;;2.00;79.70;;;;;;5020161;28;20224;-68
2022/03/09 04:11:38;;;;;;;6.40;3.10;;;2.00;79.70;;;;;;5011286;28;20240;-69
2022/03/09 04:14:04;;;;;;;7.50;3.83;;;2.00;80.50;;;;;;5025958;28;20467;-70
2022/03/09 04:16:29;;;;;;;5.97;3.33;;;2.00;79.90;;;;;;5027406;28;20602;-68
2022/03/09 04:18:56;;;;;;;7.13;4.17;;;2.00;79.60;;;;;;5009542;28;20215;-70
2022/03/09 04:21:22;;;;;;;8.70;3.70;;;2.00;80.00;;;;;;5008586;28;20551;-69
2022/03/09 04:23:47;;;;;;;4.30;3.10;;;2.00;80.00;;;;;;5005422;28;20467;-72
2022/03/09 04:26:13;;;;;;;7.60;4.37;;;1.90;79.60;;;;;;5020918;28;20219;-71
2022/03/09 04:28:39;;;;;;;6.90;3.70;;;1.90;80.00;;;;;;5008145;28;20216;-70
2022/03/09 04:31:04;;;;;;;4.80;3.53;;;1.90;79.50;;;;;;5010865;28;20224;-69
2022/03/09 04:33:30;;;;;;;4.47;3.40;;;1.90;80.00;;;;;;5009394;28;20221;-67
2022/03/09 04:35:56;;;;;;;6.00;3.90;;;1.80;80.10;;;;;;5024435;28;20303;-68
2022/03/09 04:38:21;;;;;;;6.40;4.20;;;1.80;79.80;;;;;;5016423;28;20221;-68
2022/03/09 04:40:47;;;;;;;7.50;4.00;;;1.80;79.80;;;;;;5010432;28;20303;-70
2022/03/09 04:43:13;;;;;;;5.93;3.83;;;1.80;80.10;;;;;;5010417;28;20602;-70
2022/03/09 04:45:38;;;;;;;5.70;4.03;;;1.80;80.20;;;;;;5009324;28;20248;-68
2022/03/09 04:48:04;;;;;;;12.37;4.70;;;1.80;80.10;;;;;;5000397;28;20213;-68
2022/03/09 04:50:30;;;;;;;12.50;3.60;;;1.70;80.00;;;;;;5022884;28;20225;-69
2022/03/09 04:52:56;;;;;;;6.90;3.60;;;1.70;79.70;;;;;;5011013;28;20279;-69
2022/03/09 04:55:21;;;;;;;7.53;4.10;;;1.70;80.10;;;;;;5030077;28;20217;-69
2022/03/09 04:57:47;;;;;;;8.00;4.00;;;1.80;80.40;;;;;;5007207;28;20255;-68
2022/03/09 05:00:13;;;;;;;6.23;5.03;;;1.70;79.60;;;;;;5030779;28;20212;-68
2022/03/09 05:02:39;;;;;;;9.63;4.03;;;1.70;80.00;;;;;;5029662;28;20731;-68
2022/03/09 05:05:05;;;;;;;7.77;4.87;;;1.60;80.30;;;;;;5032116;28;20469;-68
2022/03/09 05:07:31;;;;;;;5.50;3.90;;;1.60;80.40;;;;;;5027441;28;20232;-69
2022/03/09 05:09:57;;;;;;;6.20;3.33;;;1.60;80.70;;;;;;5010282;28;20448;-68
2022/03/09 05:12:23;;;;;;;6.57;4.30;;;1.50;80.80;;;;;;5021439;28;20502;-69
2022/03/09 05:14:48;;;;;;;5.47;3.50;;;1.50;80.80;;;;;;5028524;28;20223;-69
2022/03/09 05:17:14;;;;;;;6.50;4.10;;;1.50;80.80;;;;;;5031733;28;20223;-68
2022/03/09 05:19:40;;;;;;;9.23;4.50;;;1.40;80.40;;;;;;5028030;28;20227;-69
2022/03/09 05:22:05;;;;;;;9.17;4.57;;;1.40;80.50;;;;;;5029007;28;20231;-68
2022/03/09 05:24:31;;;;;;;8.10;5.50;;;1.20;81.20;;;;;;5014059;28;20212;-68
2022/03/09 05:26:56;;;;;;;8.50;4.80;;;1.30;81.30;;;;;;5011204;28;20239;-70
2022/03/09 05:29:22;;;;;;;10.23;5.60;;;1.40;81.20;;;;;;5023253;28;20233;-68
2022/03/09 05:31:48;;;;;;;9.60;5.13;;;1.40;81.00;;;;;;5023634;28;20239;-68
2022/03/09 05:34:14;;;;;;;9.00;6.37;;;1.40;80.90;;;;;;5002041;28;20288;-68
2022/03/09 05:36:41;;;;;;;7.70;4.60;;;1.40;80.80;;;;;;5020166;28;20524;-69
2022/03/09 05:39:06;;;;;;;8.43;4.83;;;1.40;80.80;;;;;;5030746;28;20212;-68
2022/03/09 05:41:33;;;;;;;6.87;4.43;;;1.40;80.80;;;;;;5016595;28;20461;-68
2022/03/09 05:43:59;;;;;;;9.53;5.63;;;1.40;80.80;;;;;;5026521;28;20232;-67
2022/03/09 05:46:25;;;;;;;7.40;4.70;;;1.40;80.50;;;;;;5027151;28;21042;-67
2022/03/09 05:48:50;;;;;;;6.80;4.33;;;1.40;80.50;;;;;;5009368;28;20467;-67
2022/03/09 05:51:16;;;;;;;6.40;3.73;;;1.30;80.60;;;;;;5010491;28;20240;-67
2022/03/09 05:53:43;;;;;;;5.87;4.20;;;1.30;80.80;;;;;;5024967;28;20311;-67
2022/03/09 05:56:08;;;;;;;6.83;5.00;;;1.30;80.80;;;;;;5026420;28;20526;-67
2022/03/09 05:58:34;;;;;;;12.40;5.40;;;1.30;81.50;;;;;;5025489;28;20227;-67
2022/03/09 06:01:00;;;;;;;12.77;4.43;;;1.30;80.80;;;;;;5021736;28;20235;-69
2022/03/09 06:03:25;;;;;;;5.40;3.30;;;1.20;80.70;;;;;;5005979;28;20236;-67
2022/03/09 06:05:51;;;;;;;5.23;3.70;;;1.20;80.90;;;;;;5008390;28;20237;-68
2022/03/09 06:08:17;;;;;;;6.87;4.37;;;1.20;81.00;;;;;;5008703;28;20228;-68
2022/03/09 06:10:42;;;;;;;14.80;4.27;;;1.20;80.90;;;;;;5010449;28;20254;-67
2022/03/09 06:13:08;;;;;;;9.67;4.80;;;1.10;81.10;;;;;;5013564;28;20224;-68
2022/03/09 06:15:34;;;;;;;11.13;4.53;;;1.10;81.00;;;;;;5006157;28;20236;-68
2022/03/09 06:18:01;;;;;;;7.87;4.50;;;1.10;81.10;;;;;;5022598;28;20219;-67
2022/03/09 06:20:27;;;;;;;6.50;4.10;;;1.10;81.00;;;;;;5028098;28;20463;-68
2022/03/09 06:22:54;;;;;;;3.60;3.03;;;1.10;80.90;;;;;;5031131;28;20472;-66
2022/03/09 06:25:20;;;;;;;7.03;4.33;;;1.10;81.30;;;;;;5013756;28;20243;-65
2022/03/09 06:27:48;;;;;;;7.57;4.00;;;1.00;81.70;;;;;;5032477;28;20455;-65
2022/03/09 06:30:15;;;;;;;4.93;3.40;;;1.10;81.80;;;;;;4986931;28;20459;-68
2022/03/09 06:32:42;;;;;;;5.90;4.40;;;1.10;81.30;;;;;;5027317;28;20466;-68
2022/03/09 06:35:09;;;;;;;3.97;3.20;;;1.00;81.80;;;;;;5010881;28;20474;-67
2022/03/09 06:37:35;;;;;;;10.40;4.30;;;1.00;82.10;;;;;;5030326;28;20456;-67
2022/03/09 06:40:02;;;;;;;8.93;4.93;;;1.10;82.20;;;;;;5010488;28;20467;-67
2022/03/09 06:42:29;;;;;;;7.13;4.60;;;1.10;81.90;;;;;;5029369;28;20232;-68
2022/03/09 06:44:55;;;;;;;6.10;3.80;;;1.00;82.50;;;;;;5030670;28;20463;-67
2022/03/09 06:47:21;;;;;;;4.70;4.07;;;1.10;82.40;;;;;;5013742;28;20798;-68
2022/03/09 06:49:47;;;;;;;5.80;3.40;;;1.10;82.50;;;;;;5012860;28;20462;-66
2022/03/09 06:52:13;;;;;;;9.13;5.20;;;1.10;82.60;;;;;;5017592;28;20236;-67
2022/03/09 06:54:38;;;;;;;9.83;4.73;;;1.10;82.60;;;;;;5012980;28;20212;-67
2022/03/09 06:57:04;;;;;;;6.00;3.80;;;1.10;83.30;;;;;;5013204;28;20304;-68
2022/03/09 06:59:30;;;;;;;6.77;3.93;;;1.10;83.00;;;;;;5028166;28;20304;-68
2022/03/09 07:01:55;;;;;;;7.10;3.43;;;1.10;83.10;;;;;;5009505;28;20221;-67
2022/03/09 07:04:21;;;;;;;6.70;4.57;;;1.10;83.40;;;;;;5021629;28;20225;-67
2022/03/09 07:06:47;;;;;;;5.23;4.10;;;1.20;83.80;;;;;;5007867;28;20224;-68
2022/03/09 07:09:14;;;;;;;12.13;5.17;;;1.20;84.10;;;;;;5011380;28;20216;-69
2022/03/09 07:11:41;;;;;;;8.97;5.17;;;1.20;84.40;;;;;;5012949;28;20313;-69
2022/03/09 07:14:07;;;;;;;8.60;4.10;;;1.20;84.50;;;;;;5010343;28;20502;-70
2022/03/09 07:16:33;;;;;;;8.07;4.70;;;1.30;84.60;;;;;;5022505;28;20481;-68
2022/03/09 07:18:59;;;;;;;5.40;3.43;;;1.30;85.00;;;;;;4989340;28;20449;-68
2022/03/09 07:21:25;;;;;;;7.80;4.50;;;1.30;85.20;;;;;;5023807;28;20455;-68
2022/03/09 07:23:50;;;;;;;4.07;3.43;;;1.30;85.30;;;;;;5009324;28;20255;-70
2022/03/09 07:26:16;;;;;;;10.10;4.87;;;1.40;85.90;;;;;;5001230;28;20224;-68
2022/03/09 07:28:41;;;;;;;8.50;4.90;;;1.40;85.90;;;;;;5021173;28;20279;-67
2022/03/09 07:31:08;;;;;;;13.83;6.67;;;1.40;86.00;;;;;;5009874;28;20319;-68
2022/03/09 07:33:34;;;;;;;9.10;4.70;;;1.40;86.10;;;;;;4999858;28;20233;-68
2022/03/09 07:36:01;;;;;;;7.37;4.17;;;1.50;86.40;;;;;;5005174;28;20458;-68
2022/03/09 07:38:28;;;;;;;9.03;5.07;;;1.50;86.60;;;;;;5020414;28;20496;-68
2022/03/09 07:40:53;;;;;;;5.43;4.20;;;1.50;87.50;;;;;;5017960;28;20440;-68
2022/03/09 07:43:20;;;;;;;4.67;4.17;;;1.60;87.40;;;;;;5010047;28;20473;-67
2022/03/09 07:45:46;;;;;;;7.20;4.80;;;1.60;87.80;;;;;;4997082;28;20999;-68
2022/03/09 07:48:12;;;;;;;5.17;3.33;;;1.70;87.90;;;;;;5017337;28;20232;-69
2022/03/09 07:50:38;;;;;;;8.73;4.43;;;1.70;87.70;;;;;;5023759;28;20472;-68
2022/03/09 07:53:06;;;;;;;8.60;4.87;;;1.80;89.00;;;;;;4997676;28;20225;-67
2022/03/09 07:55:32;;;;;;;12.93;5.63;;;1.90;89.80;;;;;;5007170;28;20487;-69
2022/03/09 07:57:58;;;;;;;8.10;5.13;;;2.00;90.30;;;;;;5010640;28;20546;-68
2022/03/09 08:00:23;;;;;;;11.93;4.33;;;2.00;90.40;;;;;;5002446;28;20220;-68
2022/03/09 08:02:49;;;;;;;9.87;4.47;;;2.10;90.70;;;;;;5006116;28;20487;-67
2022/03/09 08:05:15;;;;;;;8.60;4.60;;;2.20;90.80;;;;;;5010412;28;20216;-68
2022/03/09 08:07:42;;;;;;;9.33;5.00;;;2.20;90.80;;;;;;5008630;28;20220;-69
2022/03/09 08:10:09;;;;;;;7.00;5.23;;;2.30;90.90;;;;;;5009871;28;20525;-67
2022/03/09 08:12:35;;;;;;;6.50;4.33;;;2.40;91.30;;;;;;5016277;28;20464;-67
2022/03/09 08:15:01;;;;;;;8.07;4.17;;;2.50;91.60;;;;;;5008619;28;20463;-68
2022/03/09 08:17:27;;;;;;;5.67;4.17;;;2.60;91.40;;;;;;5020114;28;20216;-68
2022/03/09 08:19:52;;;;;;;9.00;5.00;;;2.70;91.50;;;;;;5021797;28;20460;-68
2022/03/09 08:22:18;;;;;;;7.00;4.43;;;2.80;91.40;;;;;;5008659;28;20231;-69
2022/03/09 08:24:44;;;;;;;8.57;4.90;;;2.80;91.10;;;;;;5020349;28;20220;-69
2022/03/09 08:27:09;;;;;;;8.17;4.87;;;2.90;91.50;;;;;;5008380;28;20455;-68
2022/03/09 08:29:35;;;;;;;5.93;4.20;;;3.00;91.50;;;;;;5008136;28;20213;-68
2022/03/09 08:32:01;;;;;;;14.00;4.53;;;3.10;91.80;;;;;;5020197;28;20221;-69
2022/03/09 08:34:26;;;;;;;9.07;5.27;;;3.10;91.50;;;;;;5012376;28;20216;-68
2022/03/09 08:36:52;;;;;;;10.40;5.87;;;3.10;91.20;;;;;;5010669;28;20216;-68
2022/03/09 08:39:18;;;;;;;8.77;5.57;;;3.20;91.70;;;;;;5008506;28;20217;-70
2022/03/09 08:41:46;;;;;;;6.77;4.87;;;3.20;91.70;;;;;;5014503;28;20227;-68
2022/03/09 08:44:12;;;;;;;9.30;5.97;;;3.30;92.10;;;;;;5010922;28;20303;-68
2022/03/09 08:46:38;;;;;;;6.67;4.60;;;3.40;92.60;;;;;;5021139;28;20570;-68
2022/03/09 08:49:03;;;;;;;7.00;4.93;;;3.60;92.40;;;;;;5030068;28;20221;-69
2022/03/09 08:51:29;;;;;;;7.30;5.20;;;3.70;92.60;;;;;;5020237;28;20325;-68
2022/03/09 08:53:55;;;;;;;10.40;6.17;;;3.90;92.30;;;;;;5010754;28;20221;-68
2022/03/09 08:56:21;;;;;;;10.47;4.50;;;4.00;92.20;;;;;;5002684;28;20216;-69
2022/03/09 08:58:47;;;;;;;8.77;5.40;;;4.10;92.20;;;;;;5009507;28;20247;-68
2022/03/09 09:01:13;;;;;;;8.00;6.10;;;4.20;92.10;;;;;;5017697;28;20592;-70
2022/03/09 09:03:39;;;;;;;11.07;5.37;;;4.30;92.20;;;;;;5008990;28;20479;-68
2022/03/09 09:06:06;;;;;;;6.90;4.97;;;4.40;92.20;;;;;;5004289;28;20536;-68
2022/03/09 09:08:31;;;;;;;7.23;4.97;;;4.40;92.10;;;;;;5020087;28;20542;-71
2022/03/09 09:10:57;;;;;;;11.67;5.20;;;4.50;92.00;;;;;;5012074;28;20599;-68
2022/03/09 09:13:23;;;;;;;7.40;4.67;;;4.60;92.20;;;;;;5008480;28;20217;-68
2022/03/09 09:15:49;;;;;;;18.07;6.67;;;4.70;91.90;;;;;;5010285;28;20221;-67
2022/03/09 09:18:15;;;;;;;7.93;5.17;;;4.70;91.80;;;;;;5013635;28;20216;-68
2022/03/09 09:20:40;;;;;;;6.43;5.20;;;4.70;91.90;;;;;;4994439;28;20654;-68
2022/03/09 09:23:07;;;;;;;10.17;5.60;;;4.80;92.30;;;;;;5014097;28;20497;-70
2022/03/09 09:25:33;;;;;;;6.90;4.53;;;4.90;92.60;;;;;;5006121;28;20485;-68
2022/03/09 09:27:59;;;;;;;10.53;5.33;;;5.00;92.40;;;;;;5022332;28;20271;-69
2022/03/09 09:30:26;;;;;;;10.23;6.10;;;5.10;92.40;;;;;;4999494;28;20218;-67
2022/03/09 09:32:52;;;;;;;9.80;5.03;;;5.30;92.50;;;;;;5015455;28;20522;-70
2022/03/09 09:35:18;;;;;;;6.30;5.60;;;5.30;92.10;;;;;;5008129;28;20455;-72
2022/03/09 09:37:45;;;;;;;9.80;5.50;;;5.40;92.20;;;;;;4990986;28;20463;-73
2022/03/09 09:40:13;;;;;;;6.17;4.07;;;5.60;92.40;;;;;;5010267;28;20458;-71
2022/03/09 09:42:39;;;;;;;10.97;5.30;;;5.70;92.30;;;;;;5002433;28;20471;-72
2022/03/09 09:45:07;;;;;;;7.20;5.17;;;5.90;92.10;;;;;;5009948;28;20470;-71
2022/03/09 09:47:33;;;;;;;10.47;5.53;;;5.90;92.20;;;;;;5015995;28;20456;-69
2022/03/09 09:50:01;;;;;;;6.73;5.10;;;6.00;92.30;;;;;;5009243;28;20563;-71
2022/03/09 09:52:29;;;;;;;8.03;5.47;;;6.10;92.40;;;;;;5010463;28;20828;-72
2022/03/09 09:54:56;;;;;;;10.77;5.20;;;6.20;92.20;;;;;;5014349;28;20468;-70
2022/03/09 09:57:23;;;;;;;7.80;5.60;;;6.20;92.00;;;;;;5007441;28;20583;-68
2022/03/09 09:59:50;;;;;;;8.10;5.07;;;6.40;92.40;;;;;;5020542;28;20460;-73
2022/03/09 10:02:16;;;;;;;8.40;5.53;;;6.60;92.20;;;;;;5001808;28;20456;-71
2022/03/09 10:04:43;;;;;;;7.17;4.90;;;6.90;92.10;;;;;;5021377;28;20507;-70
2022/03/09 10:07:09;;;;;;;7.17;5.50;;;7.00;91.70;;;;;;5007733;28;20447;-70
2022/03/09 10:09:36;;;;;;;6.63;5.17;;;7.10;91.80;;;;;;5009208;28;20448;-70
2022/03/09 10:12:04;;;;;;;9.67;5.67;;;7.20;91.60;;;;;;5014141;28;20376;-73
2022/03/09 10:14:51;;;;;;;7.60;5.90;;;7.30;91.60;;;;;;5011249;28;20455;-72
2022/03/09 10:17:27;;;;;;;6.40;5.00;;;7.40;91.50;;;;;;5013198;28;20486;-71
2022/03/09 10:19:57;;;;;;;7.77;5.70;;;7.50;91.70;;;;;;5015491;28;20534;-70
2022/03/09 10:22:46;;;;;;;8.33;5.40;;;7.60;91.40;;;;;;5021402;28;20469;-70
2022/03/09 10:25:12;;;;;;;9.30;5.97;;;7.80;91.10;;;;;;5021699;28;20510;-70
2022/03/09 10:27:46;;;;;;;11.20;6.90;;;8.10;90.90;;;;;;5000613;28;20986;-70
2022/03/09 10:30:17;;;;;;;11.67;7.00;;;8.10;91.10;;;;;;5003810;28;20208;-72
2022/03/09 10:32:48;;;;;;;9.20;6.70;;;8.20;90.90;;;;;;5006793;28;20455;-72
2022/03/09 10:35:29;;;;;;;10.03;6.60;;;8.50;90.20;;;;;;5023196;28;20486;-71
2022/03/09 10:38:03;;;;;;;8.80;6.10;;;8.50;90.50;;;;;;5008071;28;20567;-71
2022/03/09 10:40:30;;;;;;;10.23;6.20;;;8.60;90.70;;;;;;5019426;28;20494;-72
2022/03/09 10:43:18;;;;;;;10.83;7.10;;;8.70;90.70;;;;;;5018360;28;20533;-71
2022/03/09 10:45:58;;;;;;;9.33;6.10;;;8.70;90.90;;;;;;5006752;28;20503;-71
2022/03/09 10:48:25;;;;;;;9.30;6.30;;;8.90;90.80;;;;;;5016006;28;20450;-70
2022/03/09 10:50:52;;;;;;;10.37;7.67;;;9.00;90.50;;;;;;5013799;28;20464;-71
2022/03/09 10:53:18;;;;;;;74.57;31.10;;;9.20;90.30;;;;;;5016953;28;20444;-70
2022/03/09 10:55:43;;;;;;;105.17;49.07;;;9.20;90.20;;;;;;5021486;28;20443;-71
2022/03/09 10:58:21;;;;;;;131.93;60.70;;;9.10;89.40;;;;;;5021702;28;20229;-72
2022/03/09 11:00:52;;;;;;;77.63;40.50;;;9.10;90.10;;;;;;5006035;28;20220;-70
2022/03/09 11:03:33;;;;;;;40.73;22.57;;;9.30;90.20;;;;;;5007482;28;20833;-72
2022/03/09 11:06:03;;;;;;;21.93;13.47;;;9.50;90.00;;;;;;5009437;28;20794;-71
2022/03/09 11:08:30;;;;;;;25.77;12.10;;;9.50;89.90;;;;;;5016457;28;20800;-71
2022/03/09 11:10:58;;;;;;;14.83;9.53;;;9.50;89.80;;;;;;5016487;28;21094;-71
2022/03/09 11:13:25;;;;;;;17.17;8.60;;;9.50;89.10;;;;;;5010054;28;20545;-71
2022/03/09 11:15:51;;;;;;;12.50;9.03;;;9.50;88.10;;;;;;5009301;28;20463;-71
2022/03/09 11:18:28;;;;;;;10.87;8.57;;;9.60;88.80;;;;;;5015010;28;20459;-71
2022/03/09 11:21:00;;;;;;;16.20;8.87;;;9.70;89.00;;;;;;5016198;28;20460;-70
2022/03/09 11:23:29;;;;;;;10.10;6.93;;;10.00;87.10;;;;;;5021880;28;20471;-72
2022/03/09 11:26:16;;;;;;;8.77;6.13;;;10.20;87.20;;;;;;5021684;28;20456;-72
2022/03/09 11:28:44;;;;;;;7.93;6.03;;;10.30;87.60;;;;;;5016690;28;20982;-70
2022/03/09 11:31:13;;;;;;;8.00;6.47;;;10.40;87.30;;;;;;5018475;28;20970;-70
2022/03/09 11:33:45;;;;;;;9.30;6.73;;;10.40;86.40;;;;;;5024425;28;20539;-73
2022/03/09 11:36:29;;;;;;;8.83;6.13;;;10.40;87.00;;;;;;5000322;28;20462;-71
2022/03/09 11:39:04;;;;;;;12.13;7.10;;;10.40;86.00;;;;;;5022311;28;20973;-73
2022/03/09 11:41:35;;;;;;;8.43;6.40;;;10.50;85.80;;;;;;5022350;28;20467;-70
2022/03/09 11:44:29;;;;;;;8.73;5.90;;;10.80;84.60;;;;;;5018702;28;20490;-72
2022/03/09 11:47:00;;;;;;;8.70;6.43;;;11.10;84.50;;;;;;5006537;28;20479;-71
2022/03/09 11:49:54;;;;;;;6.80;5.83;;;11.20;84.70;;;;;;5018446;28;20456;-71
2022/03/09 11:52:25;;;;;;;9.00;6.70;;;11.00;82.90;;;;;;5002100;28;20472;-75
2022/03/09 11:54:59;;;;;;;12.07;7.60;;;10.80;82.10;;;;;;4999196;28;20570;-73
2022/03/09 11:57:48;;;;;;;10.07;7.27;;;10.80;81.90;;;;;;5010078;28;20590;-70
2022/03/09 12:00:16;;;;;;;9.53;6.00;;;10.70;81.60;;;;;;5001212;28;21022;-73
2022/03/09 12:02:44;;;;;;;9.03;6.27;;;10.70;82.40;;;;;;5022960;28;20987;-71
2022/03/09 12:05:25;;;;;;;10.70;7.00;;;10.90;82.40;;;;;;5002313;28;20450;-73
2022/03/09 12:07:58;;;;;;;9.83;7.60;;;11.10;81.90;;;;;;4999939;28;20468;-69
2022/03/09 12:10:49;;;;;;;9.53;6.90;;;11.00;80.00;;;;;;5006075;28;20471;-70
2022/03/09 12:13:21;;;;;;;9.20;6.40;;;10.90;82.10;;;;;;5018618;28;20459;-70
2022/03/09 12:16:14;;;;;;;12.20;7.80;;;10.90;80.40;;;;;;5018624;28;20510;-72
2022/03/09 12:18:43;;;;;;;10.30;7.27;;;10.90;81.00;;;;;;5016336;28;20459;-72
2022/03/09 12:21:11;;;;;;;14.17;7.97;;;11.00;81.20;;;;;;5017415;28;20534;-74
2022/03/09 12:24:03;;;;;;;13.60;8.20;;;11.10;80.50;;;;;;5002889;28;20474;-72
2022/03/09 12:26:52;;;;;;;11.27;7.40;;;11.00;81.00;;;;;;5017292;28;20539;-74
2022/03/09 12:29:21;;;;;;;9.90;7.20;;;11.00;79.60;;;;;;5014686;28;20514;-69
2022/03/09 12:31:59;;;;;;;16.10;10.57;;;11.00;79.50;;;;;;5009986;28;20486;-70
2022/03/09 12:34:26;;;;;;;19.07;10.87;;;11.00;79.00;;;;;;5017749;28;21050;-70
2022/03/09 12:36:52;;;;;;;13.30;9.07;;;11.20;79.80;;;;;;5022351;28;20464;-70
2022/03/09 12:39:18;;;;;;;12.67;8.27;;;11.40;80.80;;;;;;5025619;28;20497;-68
2022/03/09 12:41:50;;;;;;;10.63;8.40;;;11.40;80.10;;;;;;5021066;28;20483;-68
2022/03/09 12:44:18;;;;;;;12.57;7.97;;;11.40;78.80;;;;;;5020966;28;20267;-71
2022/03/09 12:46:45;;;;;;;13.50;8.03;;;11.40;76.60;;;;;;5013991;28;20452;-68
2022/03/09 12:49:15;;;;;;;11.27;7.43;;;11.50;79.00;;;;;;5021748;28;20460;-71
2022/03/09 12:51:55;;;;;;;12.03;7.10;;;11.60;80.00;;;;;;5021081;28;20494;-69
2022/03/09 12:54:30;;;;;;;9.90;7.53;;;11.70;79.50;;;;;;5019975;28;20452;-68